createdAt,value
2023-04-26T00:00:38.512Z,12.90
2023-04-26T00:04:39.424Z,12.86
2023-04-26T00:08:40.619Z,12.83
2023-04-26T00:12:44.232Z,12.74
2023-04-26T00:16:54.337Z,12.82
2023-04-26T00:20:57.600Z,12.78
2023-04-26T00:25:06.751Z,12.72
2023-04-26T00:29:18.955Z,12.70
2023-04-26T00:33:24.922Z,12.56
2023-04-26T00:37:26.276Z,12.57
2023-04-26T00:41:28.562Z,12.58
2023-04-26T00:45:30.569Z,12.71
2023-04-26T00:49:37.017Z,12.67
2023-04-26T00:53:47.459Z,12.66
2023-04-26T00:57:54.745Z,12.61
2023-04-26T01:01:56.578Z,12.59
2023-04-26T01:06:01.907Z,12.54
2023-04-26T01:10:06.944Z,12.49
2023-04-26T01:14:26.430Z,12.51
2023-04-26T01:18:34.239Z,12.52
2023-04-26T01:22:42.734Z,12.56
2023-04-26T01:26:49.349Z,12.54
2023-04-26T01:30:56.944Z,12.55
2023-04-26T01:34:58.780Z,12.26
2023-04-26T01:39:04.787Z,12.16
2023-04-26T01:43:07.589Z,12.17
2023-04-26T01:47:08.628Z,12.23
2023-04-26T01:51:12.559Z,12.29
2023-04-26T01:55:15.330Z,12.21
2023-04-26T01:59:19.164Z,12.19
2023-04-26T02:03:20.054Z,12.16
2023-04-26T02:07:35.508Z,12.25
2023-04-26T02:11:39.179Z,12.26
2023-04-26T02:15:42.631Z,12.35
2023-04-26T02:19:43.563Z,12.34
2023-04-26T02:23:44.483Z,12.28
2023-04-26T02:27:52.087Z,12.17
2023-04-26T02:31:54.147Z,12.19
2023-04-26T02:35:56.479Z,12.21
2023-04-26T02:39:59.983Z,12.16
2023-04-26T02:44:04.312Z,12.22
2023-04-26T02:48:07.583Z,12.33
2023-04-26T02:52:10.710Z,12.29
2023-04-26T02:56:11.813Z,12.29
2023-04-26T03:00:17.148Z,12.20
2023-04-26T03:04:25.337Z,12.25
2023-04-26T03:08:25.683Z,12.18
2023-04-26T03:12:27.300Z,12.22
2023-04-26T03:16:31.975Z,12.17
2023-04-26T03:20:33.950Z,12.26
2023-04-26T03:24:42.575Z,12.20
2023-04-26T03:28:45.380Z,12.25
2023-04-26T03:32:49.578Z,12.25
2023-04-26T03:36:53.123Z,12.19
2023-04-26T03:40:56.832Z,12.13
2023-04-26T03:45:00.068Z,12.24
2023-04-26T03:49:05.694Z,12.24
2023-04-26T03:53:06.201Z,12.20
2023-04-26T03:57:08.923Z,12.26
2023-04-26T04:01:13.852Z,12.36
2023-04-26T04:05:19.045Z,12.47
2023-04-26T04:09:18.959Z,12.48
2023-04-26T04:13:45.434Z,12.63
2023-04-26T04:17:51.816Z,12.59
2023-04-26T04:21:58.489Z,13.00
2023-04-26T04:26:00.169Z,13.02
2023-04-26T04:30:03.379Z,13.10
2023-04-26T04:34:04.320Z,13.39
2023-04-26T04:38:20.658Z,13.57
2023-04-26T04:42:25.638Z,13.62
2023-04-26T04:46:32.229Z,13.88
2023-04-26T04:50:38.665Z,13.88
2023-04-26T04:54:42.364Z,13.84
2023-04-26T04:58:48.013Z,13.88
2023-04-26T05:02:55.799Z,14.09
2023-04-26T05:06:57.555Z,14.31
2023-04-26T05:11:00.585Z,13.90
2023-04-26T05:15:02.812Z,13.95
2023-04-26T05:19:08.098Z,13.59
2023-04-26T05:23:12.784Z,13.56
2023-04-26T05:27:16.289Z,13.66
2023-04-26T05:31:18.285Z,13.67
2023-04-26T05:35:30.314Z,13.48
2023-04-26T05:39:31.128Z,13.33
2023-04-26T05:43:42.612Z,13.58
2023-04-26T05:47:43.111Z,14.36
2023-04-26T05:51:49.810Z,14.58
2023-04-26T05:56:16.384Z,14.84
2023-04-26T06:00:30.186Z,15.03
2023-04-26T06:04:32.870Z,15.07
2023-04-26T06:08:33.880Z,14.79
2023-04-26T06:12:34.619Z,14.83
2023-04-26T06:16:44.001Z,14.53
2023-04-26T06:20:48.488Z,14.76
2023-04-26T06:24:51.790Z,14.38
2023-04-26T06:28:56.433Z,14.23
2023-04-26T06:33:01.325Z,14.41
2023-04-26T06:37:02.796Z,14.50
2023-04-26T06:41:06.451Z,14.81
2023-04-26T06:45:10.781Z,15.59
2023-04-26T06:49:13.682Z,15.34
2023-04-26T06:53:21.821Z,15.34
2023-04-26T06:57:26.735Z,15.61
2023-04-26T07:01:26.547Z,15.71
2023-04-26T07:05:33.546Z,16.19
2023-04-26T07:09:36.639Z,16.14
2023-04-26T07:13:39.238Z,16.16
2023-04-26T07:17:43.989Z,16.39
2023-04-26T07:21:46.767Z,16.42
2023-04-26T07:25:47.508Z,16.40
2023-04-26T07:29:49.787Z,16.30
2023-04-26T07:33:57.111Z,16.57
2023-04-26T07:38:00.193Z,16.24
2023-04-26T07:42:04.414Z,16.62
2023-04-26T07:46:08.505Z,16.78
2023-04-26T07:50:12.543Z,17.30
2023-04-26T07:54:27.319Z,17.00
2023-04-26T07:58:33.024Z,16.78
2023-04-26T08:02:43.966Z,16.95
2023-04-26T08:06:48.635Z,17.14
2023-04-26T08:10:51.653Z,16.95
2023-04-26T08:14:53.374Z,17.14
2023-04-26T08:19:02.840Z,17.01
2023-04-26T08:23:08.521Z,16.72
2023-04-26T08:27:18.907Z,16.41
2023-04-26T08:31:23.310Z,16.67
2023-04-26T08:35:25.141Z,16.89
2023-04-26T08:39:33.220Z,16.94
2023-04-26T08:43:51.083Z,17.13
2023-04-26T08:48:04.943Z,16.96
2023-04-26T08:52:07.683Z,16.93
2023-04-26T08:56:10.125Z,17.11
2023-04-26T09:00:15.904Z,17.19
2023-04-26T09:04:20.351Z,17.59
2023-04-26T09:08:27.718Z,17.31
2023-04-26T09:12:47.422Z,17.34
2023-04-26T09:17:12.721Z,17.57
2023-04-26T09:21:25.902Z,17.16
2023-04-26T09:25:50.361Z,16.98
2023-04-26T09:30:12.506Z,17.54
2023-04-26T09:34:17.293Z,17.81
2023-04-26T09:38:18.760Z,17.82
2023-04-26T09:42:22.072Z,17.40
2023-04-26T09:46:26.293Z,17.48
2023-04-26T09:50:36.319Z,17.95
2023-04-26T09:54:50.355Z,17.93
2023-04-26T09:59:05.948Z,17.73
2023-04-26T10:03:08.403Z,18.26
2023-04-26T10:07:22.539Z,18.61
2023-04-26T10:11:29.047Z,19.30
2023-04-26T10:15:33.425Z,19.18
2023-04-26T10:19:36.021Z,19.16
2023-04-26T10:23:40.326Z,19.24
2023-04-26T10:27:56.401Z,18.48
2023-04-26T10:32:12.669Z,18.85
2023-04-26T10:36:16.805Z,18.94
2023-04-26T10:40:30.903Z,19.23
2023-04-26T10:44:42.430Z,19.61
2023-04-26T10:48:45.427Z,19.21
2023-04-26T10:53:04.437Z,19.14
2023-04-26T10:57:06.769Z,18.64
2023-04-26T11:01:21.594Z,19.15
2023-04-26T11:05:45.313Z,19.42
2023-04-26T11:09:51.916Z,19.47
2023-04-26T11:14:08.566Z,19.32
2023-04-26T11:18:10.395Z,18.80
2023-04-26T11:22:11.443Z,19.12
2023-04-26T11:26:12.600Z,19.00
2023-04-26T11:30:28.810Z,19.40
2023-04-26T11:34:34.500Z,19.52
2023-04-26T11:38:36.036Z,20.07
2023-04-26T11:42:40.358Z,19.84
2023-04-26T11:46:51.268Z,20.25
2023-04-26T11:50:54.030Z,20.09
2023-04-26T11:55:22.311Z,19.49
2023-04-26T11:59:31.019Z,19.60
2023-04-26T12:03:38.225Z,20.11
2023-04-26T12:07:49.026Z,20.32
2023-04-26T12:11:53.458Z,19.84
2023-04-26T12:16:00.650Z,19.76
2023-04-26T12:20:28.329Z,19.82
2023-04-26T12:24:56.518Z,19.97
2023-04-26T12:29:02.174Z,19.81
2023-04-26T12:33:17.016Z,20.33
2023-04-26T12:37:23.529Z,20.51
2023-04-26T12:41:44.664Z,20.82
2023-04-26T12:45:56.123Z,20.55
2023-04-26T12:50:03.546Z,20.94
2023-04-26T12:54:18.228Z,21.31
2023-04-26T12:58:38.324Z,21.28
2023-04-26T13:02:55.121Z,21.23
2023-04-26T13:06:59.168Z,20.84
2023-04-26T13:11:05.742Z,21.06
2023-04-26T13:15:09.452Z,21.15
2023-04-26T13:19:11.117Z,21.21
2023-04-26T13:23:13.487Z,21.14
2023-04-26T13:27:19.041Z,21.71
2023-04-26T13:31:19.928Z,22.02
2023-04-26T13:35:21.104Z,21.48
2023-04-26T13:39:29.051Z,21.01
2023-04-26T13:43:37.682Z,21.07
2023-04-26T13:47:40.610Z,21.10
2023-04-26T13:51:45.686Z,21.11
2023-04-26T13:55:46.684Z,21.11
2023-04-26T13:59:49.023Z,20.89
2023-04-26T14:03:56.599Z,20.88
2023-04-26T14:08:11.070Z,21.16
2023-04-26T14:12:21.404Z,21.40
2023-04-26T14:16:24.703Z,21.75
2023-04-26T14:20:36.524Z,21.48
2023-04-26T14:24:45.182Z,21.58
2023-04-26T14:28:49.847Z,21.03
2023-04-26T14:37:07.190Z,21.01
2023-04-26T14:41:13.618Z,20.74
2023-04-26T14:45:30.430Z,21.01
2023-04-26T14:49:44.170Z,21.17
2023-04-26T14:53:44.634Z,20.83
2023-04-26T14:58:03.226Z,20.42
2023-04-26T15:02:08.144Z,19.57
2023-04-26T15:06:14.059Z,18.66
2023-04-26T15:10:14.130Z,17.48
2023-04-26T15:14:17.028Z,16.73
2023-04-26T15:18:20.298Z,16.31
2023-04-26T15:22:22.820Z,16.05
2023-04-26T15:26:22.932Z,15.23
2023-04-26T15:30:30.765Z,14.64
2023-04-26T15:34:47.066Z,14.00
2023-04-26T15:38:50.971Z,13.63
2023-04-26T15:42:52.519Z,13.37
2023-04-26T15:46:57.294Z,13.24
2023-04-26T15:51:21.479Z,13.13
2023-04-26T15:55:28.058Z,13.12
2023-04-26T15:59:30.956Z,13.07
2023-04-26T16:03:31.822Z,13.05
2023-04-26T16:07:32.655Z,12.96
2023-04-26T16:11:36.362Z,13.10
2023-04-26T16:29:17.662Z,13.13
2023-04-26T16:44:16.916Z,13.54
2023-04-26T16:48:39.201Z,13.68
2023-04-26T16:53:04.187Z,13.61
2023-04-26T16:57:07.296Z,13.62
2023-04-26T17:01:31.421Z,13.67
2023-04-26T17:05:55.535Z,13.70
2023-04-26T17:10:09.005Z,13.89
2023-04-26T17:14:27.543Z,13.76
2023-04-26T17:18:29.854Z,13.70
2023-04-26T17:22:48.928Z,13.83
2023-04-26T17:27:05.425Z,13.83
2023-04-26T17:31:48.304Z,13.80
2023-04-26T17:36:01.150Z,13.68
2023-04-26T17:40:27.568Z,13.72
2023-04-26T17:44:32.490Z,13.58
2023-04-26T17:48:32.282Z,13.59
2023-04-26T17:52:32.134Z,13.49
2023-04-26T17:56:35.028Z,13.31
2023-04-26T18:00:35.473Z,13.17
2023-04-26T18:04:39.534Z,13.19
2023-04-26T18:08:39.409Z,13.18
2023-04-26T18:12:42.189Z,13.12
2023-04-26T18:16:42.468Z,13.04
2023-04-26T18:20:42.646Z,13.16
2023-04-26T18:24:42.081Z,13.21
2023-04-26T18:28:44.824Z,13.20
2023-04-26T18:32:45.360Z,13.16
2023-04-26T18:36:45.101Z,13.25
2023-04-26T18:40:45.917Z,13.11
2023-04-26T18:44:48.169Z,13.16
2023-04-26T18:48:48.324Z,12.85
2023-04-26T18:52:49.132Z,12.51
2023-04-26T18:56:49.581Z,12.17
2023-04-26T19:00:53.274Z,12.09
2023-04-26T19:04:54.027Z,11.94
2023-04-26T19:08:54.263Z,11.79
2023-04-26T19:12:54.292Z,11.69
2023-04-26T19:16:59.746Z,11.66
2023-04-26T19:21:00.139Z,11.45
2023-04-26T19:25:04.906Z,11.13
2023-04-26T19:29:14.070Z,11.11
2023-04-26T19:33:16.973Z,11.07
2023-04-26T19:37:16.047Z,10.96
2023-04-26T19:41:20.040Z,10.86
2023-04-26T19:45:20.370Z,10.81
2023-04-26T19:49:24.751Z,10.91
2023-04-26T19:53:28.853Z,10.86
2023-04-26T19:57:29.724Z,10.85
2023-04-26T20:01:30.032Z,10.75
2023-04-26T20:05:33.946Z,10.77
2023-04-26T20:09:37.141Z,10.65
2023-04-26T20:13:42.216Z,10.52
2023-04-26T20:17:45.438Z,10.41
2023-04-26T20:21:48.304Z,10.29
2023-04-26T20:25:49.570Z,10.19
2023-04-26T20:29:50.820Z,10.02
2023-04-26T20:33:50.848Z,9.89
2023-04-26T20:37:57.329Z,9.79
2023-04-26T20:42:01.765Z,9.75
2023-04-26T20:46:04.611Z,9.73
2023-04-26T20:50:06.184Z,9.74
2023-04-26T20:54:08.817Z,9.74
2023-04-26T20:58:09.782Z,9.70
2023-04-26T21:02:19.652Z,9.74
2023-04-26T21:11:13.432Z,9.68
2023-04-26T21:15:17.963Z,9.63
2023-04-26T21:19:30.343Z,9.51
2023-04-26T21:23:33.464Z,9.61
2023-04-26T21:27:37.373Z,9.57
2023-04-26T21:31:44.637Z,9.53
2023-04-26T21:35:45.784Z,9.52
2023-04-26T21:39:47.469Z,9.52
2023-04-26T21:43:52.354Z,9.48
2023-04-26T21:47:53.222Z,9.49
2023-04-26T21:51:54.557Z,9.41
2023-04-26T21:56:01.347Z,9.29
2023-04-26T22:00:12.229Z,9.23
2023-04-26T22:04:16.800Z,9.19
2023-04-26T22:08:17.921Z,9.18
2023-04-26T22:12:18.142Z,9.10
2023-04-26T22:16:20.909Z,9.08
2023-04-26T22:20:24.752Z,8.99
2023-04-26T22:24:25.592Z,8.91
2023-04-26T22:28:26.089Z,8.75
2023-04-26T22:32:29.270Z,8.66
2023-04-26T22:36:32.880Z,8.67
2023-04-26T22:40:34.014Z,8.69
2023-04-26T22:44:38.117Z,8.72
2023-04-26T22:48:43.069Z,8.72
2023-04-26T22:52:45.450Z,8.67
2023-04-26T22:56:47.117Z,8.78
2023-04-26T23:00:49.713Z,8.75
2023-04-26T23:04:53.875Z,8.76
2023-04-26T23:08:55.001Z,8.74
2023-04-26T23:12:56.117Z,8.81
2023-04-26T23:16:59.164Z,8.84
2023-04-26T23:21:01.640Z,8.88
2023-04-26T23:25:02.823Z,8.80
2023-04-26T23:29:03.005Z,8.75
2023-04-26T23:33:04.019Z,8.78
2023-04-26T23:37:07.127Z,8.76
2023-04-26T23:41:23.458Z,8.79
2023-04-26T23:45:23.932Z,8.75
2023-04-26T23:49:24.361Z,8.74
2023-04-26T23:53:27.655Z,8.82
2023-04-26T23:57:27.982Z,8.83
